Time;durP1;ratioP1;P1;durP2;ratioP2;P2;SDS_P1;SDS_P2;PMS_P1;PMS_P2;Temp;Humidity;BMP_temperature;BMP_pressure;BME280_temperature;BME280_humidity;BME280_pressure;Samples;Min_cycle;Max_cycle;Signal;HPM_P1;HPM_P2
2022/12/22 03:27:13;;;;;;;3.60;1.88;;;12.00;99.90;;;;;;5003528;28;20053;-87
2022/12/22 03:29:39;;;;;;;1.95;1.23;;;12.00;99.90;;;;;;4954893;28;20156;-87
2022/12/22 03:32:04;;;;;;;1.90;1.47;;;12.00;99.90;;;;;;4993484;28;20029;-87
2022/12/22 03:34:30;;;;;;;8.07;1.70;;;12.00;99.90;;;;;;4957976;28;20126;-87
2022/12/22 03:36:56;;;;;;;5.00;1.50;;;12.00;99.90;;;;;;5007339;28;20448;-87
2022/12/22 03:39:22;;;;;;;1.98;1.20;;;12.00;99.90;;;;;;4983230;28;20471;-87
2022/12/22 03:47:16;;;;;;;5.25;1.30;;;12.00;99.90;;;;;;4998096;28;20053;-87
2022/12/22 03:49:41;;;;;;;1.20;1.10;;;12.00;99.90;;;;;;4978099;28;20723;-87
2022/12/22 03:52:07;;;;;;;1.67;1.15;;;12.00;99.90;;;;;;4976025;28;20514;-87
2022/12/22 03:54:33;;;;;;;3.13;1.43;;;12.00;99.90;;;;;;4986881;28;20562;-87
2022/12/22 03:56:59;;;;;;;1.70;1.23;;;12.00;99.90;;;;;;4970328;28;20635;-87
2022/12/22 03:59:24;;;;;;;1.60;1.30;;;12.00;99.90;;;;;;4955084;28;20385;-87
2022/12/22 04:01:52;;;;;;;1.70;1.30;;;12.00;99.90;;;;;;4975491;28;20022;-87
2022/12/22 04:04:20;;;;;;;2.03;1.50;;;12.00;99.90;;;;;;4977125;28;20040;-86
2022/12/22 04:06:47;;;;;;;2.67;1.85;;;12.00;99.90;;;;;;4985675;28;20317;-86
2022/12/22 04:09:13;;;;;;;2.85;1.92;;;12.00;99.90;;;;;;4975136;28;20065;-87
2022/12/22 04:14:23;;;;;;;3.20;1.90;;;12.00;99.90;;;;;;4974097;28;20342;-87
2022/12/22 04:16:49;;;;;;;2.90;2.03;;;12.00;99.90;;;;;;4957935;28;20282;-87
2022/12/22 04:19:15;;;;;;;2.88;1.92;;;12.00;99.90;;;;;;4972273;28;20548;-87
2022/12/22 04:21:42;;;;;;;2.90;1.90;;;12.00;99.90;;;;;;4975081;28;20072;-87
2022/12/22 04:24:08;;;;;;;2.87;1.90;;;12.00;99.90;;;;;;4979390;28;20695;-87
2022/12/22 04:26:34;;;;;;;3.17;2.00;;;12.10;99.90;;;;;;4981955;28;20164;-87
2022/12/22 04:28:59;;;;;;;2.42;1.75;;;12.10;99.90;;;;;;4986413;28;20766;-87
2022/12/22 04:31:25;;;;;;;2.85;1.75;;;12.10;99.90;;;;;;4943937;28;20037;-87
2022/12/22 04:33:51;;;;;;;3.03;1.93;;;12.10;99.90;;;;;;4982491;28;21127;-87
2022/12/22 04:36:17;;;;;;;3.38;2.08;;;12.10;99.90;;;;;;4973216;28;20030;-87
2022/12/22 04:38:43;;;;;;;3.00;1.83;;;12.10;99.90;;;;;;4981260;28;20107;-87
2022/12/22 04:41:09;;;;;;;3.00;1.90;;;12.20;99.90;;;;;;4996662;28;20033;-87
2022/12/22 04:43:35;;;;;;;3.40;2.00;;;12.20;99.90;;;;;;4978594;28;20025;-87
2022/12/22 04:46:01;;;;;;;3.40;2.08;;;12.20;99.90;;;;;;4969265;28;20116;-87
2022/12/22 04:48:29;;;;;;;3.33;2.27;;;12.20;99.90;;;;;;4971746;28;20033;-87
2022/12/22 04:50:58;;;;;;;3.28;2.03;;;12.20;99.90;;;;;;4964009;28;20037;-87
2022/12/22 04:53:24;;;;;;;3.40;2.13;;;12.20;99.90;;;;;;4995403;28;20041;-87
2022/12/22 04:55:55;;;;;;;2.80;1.85;;;12.20;99.90;;;;;;4990333;28;20014;-87
2022/12/22 04:58:21;;;;;;;3.55;2.30;;;12.20;99.90;;;;;;4968174;28;20163;-87
2022/12/22 05:00:47;;;;;;;3.80;2.30;;;12.20;99.90;;;;;;4970261;28;20395;-88
2022/12/22 05:03:13;;;;;;;3.67;2.33;;;12.20;99.90;;;;;;4940492;28;20477;-87
2022/12/22 05:05:39;;;;;;;3.83;2.20;;;12.20;99.90;;;;;;4972222;28;20132;-87
2022/12/22 05:08:05;;;;;;;4.00;2.37;;;12.20;99.90;;;;;;4950979;28;20317;-88
2022/12/22 05:10:31;;;;;;;4.22;2.40;;;12.20;99.90;;;;;;4994184;28;20474;-87
2022/12/22 05:12:57;;;;;;;6.03;3.22;;;12.20;99.90;;;;;;4987429;28;20730;-87
2022/12/22 05:15:26;;;;;;;11.68;5.55;;;12.20;99.90;;;;;;4983359;28;20026;-87
2022/12/22 05:17:52;;;;;;;14.95;6.70;;;12.20;99.90;;;;;;4980630;28;20026;-87
2022/12/22 05:20:18;;;;;;;17.80;7.23;;;12.10;99.90;;;;;;4970403;28;20038;-87
2022/12/22 05:22:44;;;;;;;15.63;7.40;;;12.20;99.90;;;;;;4963701;28;20021;-87
2022/12/22 05:25:10;;;;;;;11.00;5.60;;;12.10;99.90;;;;;;4963290;28;20234;-87
2022/12/22 05:27:36;;;;;;;5.93;3.47;;;12.10;99.90;;;;;;4981766;28;20040;-87
2022/12/22 05:30:03;;;;;;;5.33;2.97;;;12.10;99.90;;;;;;4969258;28;20064;-87
2022/12/22 05:32:32;;;;;;;6.60;3.00;;;12.10;99.90;;;;;;4939102;28;20021;-87
2022/12/22 05:34:57;;;;;;;4.60;2.63;;;12.10;99.90;;;;;;4985223;28;20030;-87
2022/12/22 05:37:23;;;;;;;4.35;2.38;;;12.10;99.90;;;;;;4980692;28;20907;-87
2022/12/22 05:39:49;;;;;;;4.47;2.30;;;12.10;99.90;;;;;;4990818;28;20384;-86
2022/12/22 05:42:34;;;;;;;4.88;2.95;;;12.10;99.90;;;;;;4996530;28;20404;-86
2022/12/22 05:45:03;;;;;;;4.30;2.13;;;12.10;99.90;;;;;;4984029;28;20474;-87
2022/12/22 05:47:28;;;;;;;4.15;2.22;;;12.00;99.90;;;;;;4956925;28;20025;-87
2022/12/22 05:49:54;;;;;;;3.53;2.07;;;12.00;99.90;;;;;;4969864;28;20747;-86
2022/12/22 05:52:20;;;;;;;4.72;2.33;;;12.00;99.90;;;;;;4990776;28;20033;-87
2022/12/22 05:54:46;;;;;;;4.43;2.20;;;12.00;99.90;;;;;;4994285;28;20438;-87
2022/12/22 05:57:12;;;;;;;4.20;2.25;;;12.00;99.90;;;;;;4962378;28;20105;-87
2022/12/22 05:59:38;;;;;;;4.38;2.20;;;12.00;99.90;;;;;;4981320;28;20635;-86
2022/12/22 06:02:03;;;;;;;5.13;2.60;;;12.10;99.90;;;;;;4980874;28;20097;-85
2022/12/22 06:04:29;;;;;;;5.05;2.30;;;12.10;99.90;;;;;;4982406;28;20232;-86
2022/12/22 06:06:55;;;;;;;4.90;2.63;;;12.10;99.90;;;;;;4978672;28;20070;-86
2022/12/22 06:09:20;;;;;;;6.32;3.08;;;12.10;99.90;;;;;;4957709;28;20049;-86
2022/12/22 06:11:46;;;;;;;7.33;3.30;;;12.10;99.90;;;;;;4989023;28;20045;-86
2022/12/22 06:14:12;;;;;;;7.77;3.20;;;12.20;99.90;;;;;;4991335;28;20026;-84
2022/12/22 06:16:38;;;;;;;9.38;3.58;;;12.20;99.90;;;;;;4977627;28;20029;-86
2022/12/22 06:19:04;;;;;;;9.70;3.92;;;12.20;99.90;;;;;;4957836;28;20037;-86
2022/12/22 06:21:30;;;;;;;10.80;4.47;;;12.20;99.90;;;;;;4994161;28;20506;-86
2022/12/22 06:23:56;;;;;;;12.50;5.40;;;12.20;99.90;;;;;;4967238;28;20026;-85
2022/12/22 06:26:22;;;;;;;12.85;5.45;;;12.20;99.90;;;;;;5011359;28;20021;-86
2022/12/22 06:28:48;;;;;;;13.52;5.80;;;12.20;99.90;;;;;;4971259;28;20017;-85
2022/12/22 06:31:14;;;;;;;12.43;5.30;;;12.20;99.90;;;;;;4994209;28;20040;-86
2022/12/22 06:33:39;;;;;;;13.15;5.93;;;12.20;99.90;;;;;;4987717;28;20029;-86
2022/12/22 06:36:07;;;;;;;12.70;5.27;;;12.20;99.90;;;;;;4973075;28;20075;-85
2022/12/22 06:38:33;;;;;;;14.55;5.95;;;12.20;99.90;;;;;;4963918;28;21077;-85
2022/12/22 06:40:58;;;;;;;13.52;5.57;;;12.20;99.90;;;;;;5019221;28;20075;-85
2022/12/22 06:43:25;;;;;;;13.43;5.57;;;12.20;99.90;;;;;;4985850;28;20026;-86
2022/12/22 06:45:50;;;;;;;11.73;4.70;;;12.20;99.90;;;;;;4983338;28;20029;-85
2022/12/22 06:48:16;;;;;;;12.07;5.40;;;12.20;99.90;;;;;;4992471;28;20017;-86
2022/12/22 06:50:42;;;;;;;14.60;5.80;;;12.20;99.90;;;;;;4970878;28;20870;-86
2022/12/22 06:53:09;;;;;;;12.70;5.65;;;12.20;99.90;;;;;;4997680;28;20084;-87
2022/12/22 06:55:36;;;;;;;13.53;5.43;;;12.20;99.90;;;;;;4966126;28;20108;-88
2022/12/22 06:58:02;;;;;;;12.70;5.07;;;12.20;99.90;;;;;;4982222;28;20840;-88
2022/12/22 07:00:28;;;;;;;10.85;4.57;;;12.20;99.90;;;;;;5003891;28;20026;-89
2022/12/22 07:02:54;;;;;;;11.82;5.13;;;12.20;99.90;;;;;;4988241;28;20243;-88
2022/12/22 07:05:20;;;;;;;12.00;5.17;;;12.20;99.90;;;;;;4985338;28;20495;-88
2022/12/22 07:07:45;;;;;;;16.48;5.20;;;12.20;99.90;;;;;;4954588;28;20542;-88
2022/12/22 07:10:11;;;;;;;13.17;5.63;;;12.20;99.90;;;;;;4974529;28;20021;-88
2022/12/22 07:12:37;;;;;;;12.32;5.50;;;12.20;99.90;;;;;;4988147;28;20029;-88
2022/12/22 07:15:04;;;;;;;13.55;5.60;;;12.20;99.90;;;;;;4974583;28;20072;-85
2022/12/22 07:17:29;;;;;;;10.90;4.95;;;12.20;99.90;;;;;;4979731;28;20310;-86
2022/12/22 07:19:55;;;;;;;12.63;5.23;;;12.20;99.90;;;;;;4989434;28;20033;-87
2022/12/22 07:22:21;;;;;;;12.67;5.33;;;12.10;99.90;;;;;;4966369;28;20022;-86
2022/12/22 07:24:46;;;;;;;11.80;5.15;;;12.20;99.90;;;;;;5001170;28;20470;-86
2022/12/22 07:27:12;;;;;;;12.83;5.27;;;12.10;99.90;;;;;;4975796;28;20061;-86
2022/12/22 07:29:39;;;;;;;12.63;5.50;;;12.10;99.90;;;;;;4980473;28;20143;-86
2022/12/22 07:32:05;;;;;;;12.65;5.07;;;12.20;99.90;;;;;;4979281;28;20210;-86
2022/12/22 07:34:31;;;;;;;13.60;5.70;;;12.10;99.90;;;;;;5004381;28;20040;-86
2022/12/22 07:36:56;;;;;;;14.73;5.47;;;12.10;99.90;;;;;;4959973;28;20022;-86
2022/12/22 07:39:22;;;;;;;13.90;6.13;;;12.10;99.90;;;;;;5001308;28;20124;-86
2022/12/22 07:44:32;;;;;;;11.93;4.57;;;12.10;99.90;;;;;;5001881;28;20024;-85
2022/12/22 07:46:58;;;;;;;12.45;4.93;;;12.10;99.90;;;;;;4959609;28;20026;-85
2022/12/22 07:52:07;;;;;;;11.90;5.18;;;12.00;99.90;;;;;;4978109;28;20223;-85
2022/12/22 07:54:33;;;;;;;12.18;5.03;;;12.00;99.90;;;;;;4981690;28;20486;-86
2022/12/22 07:56:59;;;;;;;10.85;5.07;;;12.00;99.90;;;;;;4960057;28;20025;-86
2022/12/22 07:59:25;;;;;;;12.03;5.13;;;12.00;99.90;;;;;;4981710;28;20087;-86
2022/12/22 08:01:51;;;;;;;13.98;5.38;;;12.00;99.90;;;;;;4964780;28;20183;-86
2022/12/22 08:04:17;;;;;;;13.43;5.97;;;12.00;99.90;;;;;;4965149;28;20032;-85
2022/12/22 08:06:43;;;;;;;13.97;5.67;;;11.90;99.90;;;;;;4984595;28;20768;-84
2022/12/22 08:09:13;;;;;;;12.45;4.63;;;11.90;99.90;;;;;;4984174;28;21934;-85
2022/12/22 08:11:39;;;;;;;14.32;5.78;;;11.90;99.90;;;;;;4976478;28;20441;-85
2022/12/22 08:14:05;;;;;;;14.17;5.57;;;11.90;99.90;;;;;;4974474;28;20038;-85
2022/12/22 08:16:30;;;;;;;14.02;5.45;;;11.90;99.90;;;;;;4983904;28;20045;-85
2022/12/22 08:18:56;;;;;;;13.15;5.70;;;11.80;99.90;;;;;;4990098;28;20033;-85
2022/12/22 08:21:23;;;;;;;13.17;5.30;;;11.80;99.90;;;;;;4966495;28;20026;-85
2022/12/22 08:23:48;;;;;;;12.50;4.88;;;11.80;99.90;;;;;;4982517;28;20025;-85
2022/12/22 08:26:23;;;;;;;13.80;5.45;;;11.80;99.90;;;;;;4953309;28;20380;-85
2022/12/22 08:29:01;;;;;;;12.65;5.13;;;11.80;99.90;;;;;;4956294;28;20064;-85
2022/12/22 08:31:29;;;;;;;14.27;5.00;;;11.70;99.90;;;;;;4976116;28;20030;-86
2022/12/22 08:33:57;;;;;;;12.70;4.83;;;11.70;99.90;;;;;;4991391;28;20030;-86
2022/12/22 08:36:23;;;;;;;12.55;5.22;;;11.70;99.90;;;;;;4993205;28;20064;-85
2022/12/22 08:38:50;;;;;;;12.40;5.30;;;11.70;99.90;;;;;;4980634;28;20030;-86
2022/12/22 08:41:48;;;;;;;10.77;4.57;;;11.70;99.90;;;;;;4940083;28;20029;-86
2022/12/22 08:44:02;;;;;;;10.68;4.63;;;11.70;99.90;;;;;;4967438;28;20029;-85
2022/12/22 08:46:28;;;;;;;12.50;5.30;;;11.70;99.90;;;;;;4948666;28;20072;-85
2022/12/22 08:48:54;;;;;;;11.25;5.28;;;11.70;99.90;;;;;;4992042;28;20383;-86
2022/12/22 08:51:19;;;;;;;13.27;6.00;;;11.70;99.90;;;;;;4976015;28;20026;-85
2022/12/22 08:53:45;;;;;;;13.68;5.28;;;11.70;99.90;;;;;;4984393;28;20036;-85
2022/12/22 08:56:11;;;;;;;12.70;5.70;;;11.70;99.90;;;;;;4980410;28;20026;-85
2022/12/22 08:58:38;;;;;;;12.37;5.50;;;11.70;99.90;;;;;;4958269;28;20807;-86
2022/12/22 09:01:04;;;;;;;12.18;5.05;;;11.70;99.90;;;;;;4987167;28;20087;-86
2022/12/22 09:03:30;;;;;;;13.17;5.07;;;11.70;99.90;;;;;;4974019;28;20199;-85
2022/12/22 09:06:00;;;;;;;12.27;5.28;;;11.80;99.90;;;;;;4975943;28;20053;-85
2022/12/22 09:08:26;;;;;;;13.93;5.63;;;11.80;99.90;;;;;;4974186;28;20043;-87
2022/12/22 09:10:51;;;;;;;15.68;6.38;;;11.80;99.90;;;;;;4948138;28;20026;-86
2022/12/22 09:13:17;;;;;;;15.27;6.55;;;11.80;99.90;;;;;;4984795;28;20052;-85
2022/12/22 09:15:43;;;;;;;15.20;6.57;;;11.80;99.90;;;;;;4975681;28;20018;-86
2022/12/22 09:18:09;;;;;;;14.00;5.93;;;11.80;99.90;;;;;;4953670;28;20119;-85
2022/12/22 09:20:35;;;;;;;15.57;6.07;;;11.80;99.90;;;;;;4980458;28;20244;-85
2022/12/22 09:23:00;;;;;;;13.85;5.70;;;11.80;99.90;;;;;;4971359;28;21210;-89
2022/12/22 09:25:26;;;;;;;14.93;5.60;;;11.80;99.90;;;;;;4936531;28;21365;-86
2022/12/22 09:27:52;;;;;;;14.80;5.80;;;11.80;99.90;;;;;;4977087;28;20108;-87
2022/12/22 09:30:18;;;;;;;13.60;5.63;;;11.80;99.90;;;;;;4969620;28;20026;-88
2022/12/22 09:32:44;;;;;;;11.07;4.60;;;11.80;99.90;;;;;;4964451;28;20026;-86
2022/12/22 09:35:10;;;;;;;11.10;4.65;;;11.80;99.90;;;;;;4970794;28;20493;-85
2022/12/22 09:37:36;;;;;;;11.50;4.85;;;11.80;99.90;;;;;;4998375;28;20025;-86
2022/12/22 09:40:02;;;;;;;11.70;4.70;;;11.80;99.90;;;;;;4976175;28;20025;-86
2022/12/22 09:42:33;;;;;;;12.55;4.78;;;11.80;99.90;;;;;;4937902;28;20109;-86
2022/12/22 09:44:59;;;;;;;11.82;4.75;;;11.80;99.90;;;;;;4979015;28;20053;-85
2022/12/22 09:47:45;;;;;;;11.45;4.50;;;11.80;99.90;;;;;;4969393;28;20231;-88
2022/12/22 09:50:15;;;;;;;13.37;5.00;;;11.80;99.90;;;;;;4963576;28;20320;-85
2022/12/22 09:52:51;;;;;;;10.65;4.28;;;11.80;99.90;;;;;;5006393;28;20681;-87
2022/12/22 09:55:22;;;;;;;11.00;4.70;;;11.80;99.90;;;;;;5002527;28;20064;-86
2022/12/22 09:57:48;;;;;;;10.23;4.20;;;11.80;99.90;;;;;;4939789;28;20036;-86
2022/12/22 10:00:21;;;;;;;11.05;4.38;;;11.80;99.90;;;;;;4977473;28;20026;-86
2022/12/22 10:03:01;;;;;;;11.63;4.70;;;11.80;99.90;;;;;;4978432;28;20060;-86
2022/12/22 10:05:51;;;;;;;11.57;4.45;;;11.90;99.90;;;;;;4970207;28;20141;-86
2022/12/22 10:08:27;;;;;;;11.13;4.70;;;11.90;99.90;;;;;;5004601;28;20033;-86
2022/12/22 10:10:55;;;;;;;11.88;4.55;;;12.00;99.90;;;;;;4979747;28;20046;-86
2022/12/22 10:13:21;;;;;;;11.40;4.97;;;12.10;99.90;;;;;;4970945;28;20056;-86
2022/12/22 10:15:47;;;;;;;11.63;4.67;;;12.10;99.90;;;;;;4973943;28;20474;-86
2022/12/22 10:18:16;;;;;;;10.65;4.28;;;12.20;99.90;;;;;;4988372;28;20029;-86
2022/12/22 10:20:45;;;;;;;12.00;5.07;;;12.20;99.90;;;;;;4963163;28;20056;-86
2022/12/22 10:23:23;;;;;;;12.13;5.07;;;12.30;99.90;;;;;;4977738;28;20089;-86
2022/12/22 10:25:55;;;;;;;12.82;5.07;;;12.30;99.90;;;;;;4999108;28;20111;-86
2022/12/22 10:28:28;;;;;;;10.63;4.93;;;12.30;99.90;;;;;;4957173;28;20572;-86
2022/12/22 10:31:13;;;;;;;12.98;5.22;;;12.30;99.90;;;;;;4964983;28;20049;-86
2022/12/22 10:33:40;;;;;;;11.02;4.82;;;12.30;99.90;;;;;;4969467;28;20274;-86
2022/12/22 10:36:07;;;;;;;10.73;4.70;;;12.40;99.90;;;;;;4968157;28;20736;-86
2022/12/22 10:38:39;;;;;;;11.27;5.20;;;12.40;99.90;;;;;;4986780;28;20557;-86
2022/12/22 10:41:12;;;;;;;10.60;5.50;;;12.50;99.90;;;;;;5008749;28;20026;-86
2022/12/22 10:43:47;;;;;;;14.00;5.07;;;12.40;99.90;;;;;;4964422;28;20112;-86
2022/12/22 10:46:12;;;;;;;10.32;5.10;;;12.50;99.90;;;;;;4952737;28;20495;-86
2022/12/22 10:48:39;;;;;;;11.05;4.93;;;12.50;99.90;;;;;;4950491;28;20752;-87
2022/12/22 10:51:08;;;;;;;9.98;4.70;;;12.50;99.90;;;;;;4991139;28;20022;-86
2022/12/22 10:53:54;;;;;;;10.33;5.20;;;12.50;99.90;;;;;;4959255;28;20029;-85
2022/12/22 10:56:26;;;;;;;10.20;5.40;;;12.50;99.90;;;;;;4984025;28;20501;-85
2022/12/22 10:59:16;;;;;;;8.68;4.88;;;12.50;99.90;;;;;;4977346;28;20029;-86
2022/12/22 11:01:42;;;;;;;10.50;5.47;;;12.50;99.90;;;;;;4972138;28;20030;-86
2022/12/22 11:04:25;;;;;;;11.23;6.20;;;12.50;99.90;;;;;;4986166;28;20314;-86
2022/12/22 11:07:08;;;;;;;11.95;6.15;;;12.40;99.90;;;;;;4984022;28;20081;-87
2022/12/22 11:09:34;;;;;;;10.95;5.65;;;12.50;99.90;;;;;;4984321;28;20431;-86
2022/12/22 11:12:24;;;;;;;12.50;6.60;;;12.40;99.90;;;;;;4982418;28;20429;-86
2022/12/22 11:15:16;;;;;;;11.95;6.15;;;12.40;99.90;;;;;;4985634;28;20072;-85
2022/12/22 11:17:51;;;;;;;9.53;5.57;;;12.40;99.90;;;;;;4954188;28;20068;-88
2022/12/22 11:20:22;;;;;;;13.55;6.80;;;12.40;99.90;;;;;;4997851;28;20025;-86
2022/12/22 11:23:17;;;;;;;11.93;6.03;;;12.40;99.90;;;;;;4958369;28;20504;-86
2022/12/22 11:26:02;;;;;;;9.02;5.30;;;12.30;99.90;;;;;;4996034;28;20042;-87
2022/12/22 11:28:49;;;;;;;8.57;4.68;;;12.30;99.90;;;;;;4994266;28;20095;-87
2022/12/22 11:31:48;;;;;;;7.27;4.27;;;12.20;99.90;;;;;;4993549;28;20116;-86
2022/12/22 11:34:32;;;;;;;7.07;3.80;;;12.20;99.90;;;;;;4946175;28;20052;-86
2022/12/22 11:37:30;;;;;;;7.32;3.97;;;12.20;99.90;;;;;;4964692;28;20598;-86
2022/12/22 11:40:12;;;;;;;6.55;4.00;;;12.20;99.90;;;;;;4978739;28;20022;-86
2022/12/22 11:42:43;;;;;;;6.13;3.47;;;12.10;99.90;;;;;;5000247;28;20068;-86
2022/12/22 11:45:30;;;;;;;6.43;3.33;;;12.20;99.90;;;;;;5001601;28;20049;-86
2022/12/22 11:48:14;;;;;;;5.00;3.15;;;12.10;99.90;;;;;;4968358;28;20121;-87
2022/12/22 11:50:53;;;;;;;5.47;3.10;;;12.10;99.90;;;;;;4991972;28;20498;-87
2022/12/22 11:53:30;;;;;;;7.55;3.50;;;12.10;99.90;;;;;;4989652;28;20036;-86
2022/12/22 11:56:11;;;;;;;5.53;3.65;;;12.10;99.90;;;;;;4981485;28;20554;-86
2022/12/22 11:58:47;;;;;;;6.20;3.40;;;12.10;99.90;;;;;;5001699;28;20018;-86
2022/12/22 12:01:31;;;;;;;4.88;2.95;;;12.10;99.90;;;;;;4962107;28;20504;-87
2022/12/22 12:04:26;;;;;;;5.38;3.05;;;12.20;99.90;;;;;;4964877;28;20029;-87
2022/12/22 12:06:58;;;;;;;4.82;2.92;;;12.10;99.90;;;;;;4961037;28;20058;-86
2022/12/22 12:09:53;;;;;;;5.78;2.85;;;12.10;99.90;;;;;;4990426;28;20113;-86
2022/12/22 12:12:45;;;;;;;4.70;2.73;;;12.10;99.90;;;;;;4992195;28;20022;-88
2022/12/22 12:15:30;;;;;;;5.03;2.90;;;12.20;99.90;;;;;;5005293;28;20318;-86
2022/12/22 12:18:37;;;;;;;6.07;3.22;;;12.10;99.90;;;;;;4969881;28;20025;-86
2022/12/22 12:21:29;;;;;;;4.55;2.90;;;12.20;99.90;;;;;;4988602;28;20120;-87
2022/12/22 12:24:19;;;;;;;3.70;2.53;;;12.20;99.90;;;;;;4966619;28;20466;-87
2022/12/22 12:26:50;;;;;;;4.50;2.50;;;12.20;99.90;;;;;;4995354;28;20033;-86
2022/12/22 12:29:51;;;;;;;5.55;2.90;;;12.30;99.90;;;;;;4994055;28;20018;-87
2022/12/22 12:32:26;;;;;;;3.92;2.47;;;12.40;99.90;;;;;;4961006;28;20034;-87
2022/12/22 12:35:15;;;;;;;4.50;3.05;;;12.50;99.90;;;;;;4950470;28;20037;-86
2022/12/22 12:37:44;;;;;;;3.75;2.65;;;12.60;99.90;;;;;;4977242;28;20510;-86
2022/12/22 12:40:19;;;;;;;5.47;2.70;;;12.60;99.90;;;;;;4986660;28;20197;-86
2022/12/22 12:42:47;;;;;;;4.65;2.70;;;12.70;99.90;;;;;;4979232;28;20042;-86
2022/12/22 12:45:42;;;;;;;4.00;2.42;;;12.70;99.90;;;;;;4982692;28;20030;-87
2022/12/22 12:48:20;;;;;;;3.90;2.50;;;12.70;99.90;;;;;;4971473;28;20250;-86
2022/12/22 12:50:56;;;;;;;3.55;2.58;;;12.70;99.90;;;;;;4956749;28;20030;-87
2022/12/22 12:53:22;;;;;;;3.73;2.03;;;12.70;99.90;;;;;;4995443;28;20467;-86
2022/12/22 12:55:51;;;;;;;3.30;2.13;;;12.80;99.90;;;;;;4974299;28;20104;-87
2022/12/22 12:58:38;;;;;;;3.20;2.05;;;12.80;99.90;;;;;;4977604;28;20091;-87
2022/12/22 13:01:26;;;;;;;4.68;2.20;;;12.80;99.90;;;;;;4972602;28;20548;-87
2022/12/22 13:03:52;;;;;;;3.60;2.30;;;12.70;99.90;;;;;;4993604;28;20508;-87
2022/12/22 13:06:43;;;;;;;3.90;2.00;;;12.70;99.90;;;;;;4976947;28;20049;-86
2022/12/22 13:09:17;;;;;;;3.55;1.92;;;12.70;99.90;;;;;;4991095;28;20390;-86
2022/12/22 13:11:43;;;;;;;3.97;2.03;;;12.70;99.90;;;;;;4975354;28;20045;-87
2022/12/22 13:14:08;;;;;;;3.33;2.05;;;12.70;99.90;;;;;;4996772;28;20025;-86
2022/12/22 13:16:37;;;;;;;3.03;1.80;;;12.60;99.90;;;;;;4972174;28;20397;-87
2022/12/22 13:19:12;;;;;;;3.00;2.05;;;12.60;99.90;;;;;;4991766;28;20551;-88
2022/12/22 13:21:43;;;;;;;2.08;1.60;;;12.50;99.90;;;;;;4950201;28;20394;-87
2022/12/22 13:24:20;;;;;;;4.00;1.70;;;12.50;99.90;;;;;;4979557;28;20492;-87
2022/12/22 13:26:48;;;;;;;3.27;1.50;;;12.40;99.90;;;;;;4958688;28;20135;-89
2022/12/22 13:29:21;;;;;;;2.28;1.63;;;12.40;99.90;;;;;;4990293;28;20036;-86
2022/12/22 13:32:00;;;;;;;1.83;1.52;;;12.30;99.90;;;;;;4981266;28;20021;-86
2022/12/22 13:34:37;;;;;;;1.90;1.50;;;12.20;99.90;;;;;;4996742;28;20080;-87
2022/12/22 13:37:25;;;;;;;3.47;1.65;;;12.20;99.90;;;;;;4956125;28;20694;-88
2022/12/22 13:40:10;;;;;;;2.13;1.30;;;12.10;99.90;;;;;;4973381;28;20025;-87
2022/12/22 13:42:42;;;;;;;2.25;1.27;;;12.10;99.90;;;;;;4978975;28;20025;-87
2022/12/22 13:45:19;;;;;;;2.17;1.50;;;12.00;99.90;;;;;;4993937;28;20079;-87
2022/12/22 13:47:46;;;;;;;2.30;1.65;;;12.00;99.90;;;;;;4975102;28;20107;-86
2022/12/22 13:50:35;;;;;;;2.00;1.40;;;11.90;99.90;;;;;;4996633;28;20097;-86
2022/12/22 13:53:02;;;;;;;2.67;1.43;;;11.90;99.90;;;;;;4961924;28;20033;-86
2022/12/22 13:55:30;;;;;;;2.08;1.40;;;11.90;99.90;;;;;;4990448;28;20024;-87
2022/12/22 13:58:04;;;;;;;2.00;1.30;;;11.80;99.90;;;;;;4980140;28;20041;-86
2022/12/22 14:00:30;;;;;;;1.55;1.20;;;11.80;99.90;;;;;;4991401;28;20429;-87
2022/12/22 14:02:56;;;;;;;4.20;1.67;;;11.80;99.90;;;;;;4986551;28;20021;-88
2022/12/22 14:05:22;;;;;;;2.20;1.35;;;11.70;99.90;;;;;;4967346;28;20045;-86
2022/12/22 14:07:58;;;;;;;1.88;1.42;;;11.80;99.90;;;;;;4952935;28;20084;-87
2022/12/22 14:10:43;;;;;;;1.77;1.30;;;11.70;99.90;;;;;;4988902;28;20117;-89
2022/12/22 14:13:19;;;;;;;2.63;1.50;;;11.70;99.90;;;;;;4970225;28;20030;-88
2022/12/22 14:15:45;;;;;;;1.65;1.30;;;11.80;99.90;;;;;;4990756;28;20054;-87
2022/12/22 14:18:25;;;;;;;1.90;1.30;;;11.80;99.90;;;;;;4990217;28;20029;-88
2022/12/22 14:20:51;;;;;;;3.00;1.60;;;11.80;99.90;;;;;;4974448;28;20032;-87
2022/12/22 14:23:19;;;;;;;4.30;1.87;;;11.70;99.90;;;;;;4949781;28;20557;-87
2022/12/22 14:25:47;;;;;;;2.60;1.55;;;11.70;99.90;;;;;;4964916;28;20018;-88
2022/12/22 14:28:23;;;;;;;2.40;1.80;;;11.80;99.90;;;;;;4954769;28;20034;-88
2022/12/22 14:30:55;;;;;;;3.97;1.63;;;11.80;99.90;;;;;;4995006;28;20037;-88
2022/12/22 14:33:26;;;;;;;3.08;1.67;;;11.80;99.90;;;;;;4964182;28;20041;-88
2022/12/22 14:36:16;;;;;;;1.87;1.40;;;11.80;99.90;;;;;;4985945;28;20347;-88
2022/12/22 14:38:46;;;;;;;3.50;1.75;;;11.80;99.90;;;;;;4943941;28;20184;-88
2022/12/22 14:41:45;;;;;;;2.08;1.55;;;11.80;99.90;;;;;;4993585;28;20022;-88
2022/12/22 14:44:28;;;;;;;3.22;1.80;;;11.80;99.90;;;;;;4976945;28;20044;-88
2022/12/22 14:47:10;;;;;;;2.90;1.90;;;11.80;99.90;;;;;;4989297;28;20103;-88
2022/12/22 14:49:44;;;;;;;2.67;1.73;;;11.90;99.90;;;;;;5009800;28;20577;-88
2022/12/22 14:52:24;;;;;;;2.75;1.70;;;11.90;99.90;;;;;;4986322;28;20022;-87
2022/12/22 14:54:52;;;;;;;2.10;1.70;;;11.90;99.90;;;;;;4974732;28;20490;-88
2022/12/22 14:57:34;;;;;;;4.28;2.10;;;11.90;99.90;;;;;;4969093;28;20033;-87
2022/12/22 15:00:23;;;;;;;4.03;2.03;;;11.90;99.90;;;;;;5004954;28;20371;-87
2022/12/22 15:02:52;;;;;;;3.50;2.20;;;11.90;99.90;;;;;;4955061;28;20294;-87
2022/12/22 15:05:37;;;;;;;3.78;1.90;;;12.00;99.90;;;;;;4985836;28;20468;-89
2022/12/22 15:08:04;;;;;;;4.03;1.85;;;12.00;99.90;;;;;;4985092;28;20044;-90
2022/12/22 15:10:38;;;;;;;3.83;1.70;;;12.00;99.90;;;;;;4946425;28;20489;-90
2022/12/22 15:13:10;;;;;;;4.22;2.03;;;12.10;99.90;;;;;;4996968;28;20037;-90
2022/12/22 15:15:36;;;;;;;3.87;2.00;;;12.10;99.90;;;;;;4977713;28;20692;-90
2022/12/22 15:18:02;;;;;;;2.95;2.08;;;12.10;99.90;;;;;;4966397;28;20018;-89
2022/12/22 15:20:29;;;;;;;3.83;1.95;;;12.10;99.90;;;;;;4978188;28;20021;-90
2022/12/22 15:22:54;;;;;;;3.40;1.92;;;12.10;99.90;;;;;;4986188;28;20030;-90
2022/12/22 15:25:23;;;;;;;3.57;1.87;;;12.20;99.90;;;;;;4960317;28;20026;-90
2022/12/22 15:27:49;;;;;;;4.13;2.35;;;12.20;99.90;;;;;;4982936;28;20040;-89
2022/12/22 15:30:20;;;;;;;4.68;2.03;;;12.20;99.90;;;;;;4976280;28;20025;-90
2022/12/22 15:32:46;;;;;;;4.78;1.70;;;12.20;99.90;;;;;;4989628;28;20072;-90
2022/12/22 15:35:18;;;;;;;4.70;2.03;;;12.20;99.90;;;;;;4966775;28;20112;-87
2022/12/22 15:37:44;;;;;;;5.20;2.03;;;12.20;99.90;;;;;;4994093;28;20030;-88
2022/12/22 15:40:19;;;;;;;3.50;1.90;;;12.30;99.90;;;;;;4990750;28;20032;-88
2022/12/22 15:42:45;;;;;;;4.55;1.90;;;12.30;99.90;;;;;;4966820;28;20180;-88
2022/12/22 15:45:12;;;;;;;5.73;2.20;;;12.30;99.90;;;;;;4994710;28;20021;-88
2022/12/22 15:47:39;;;;;;;6.65;2.60;;;12.20;99.90;;;;;;4980992;28;20235;-87
2022/12/22 15:50:06;;;;;;;10.63;2.88;;;12.30;99.90;;;;;;4982975;28;20034;-88
2022/12/22 15:52:32;;;;;;;7.65;2.67;;;12.30;99.90;;;;;;4979762;28;20021;-87
2022/12/22 15:54:59;;;;;;;6.03;2.28;;;12.40;99.90;;;;;;5001926;28;20014;-87
2022/12/22 15:57:25;;;;;;;6.93;2.53;;;12.40;99.90;;;;;;4951469;28;20167;-87
2022/12/22 15:59:50;;;;;;;7.63;2.85;;;12.40;99.90;;;;;;4982042;28;20017;-87
2022/12/22 16:02:16;;;;;;;7.43;2.20;;;12.50;99.90;;;;;;4982426;28;20046;-88
2022/12/22 16:04:42;;;;;;;5.07;2.30;;;12.40;99.90;;;;;;4984568;28;21433;-88
2022/12/22 16:07:11;;;;;;;7.32;2.45;;;12.50;99.90;;;;;;4996963;28;20502;-86
2022/12/22 16:09:42;;;;;;;8.40;2.50;;;12.50;99.90;;;;;;4976530;28;20045;-86
2022/12/22 16:12:15;;;;;;;7.60;2.20;;;12.50;99.90;;;;;;4945414;28;20663;-87
2022/12/22 16:14:44;;;;;;;10.90;2.55;;;12.50;99.90;;;;;;4996193;28;20563;-86
2022/12/22 16:17:18;;;;;;;7.80;1.98;;;12.60;99.90;;;;;;4993936;28;20030;-87
2022/12/22 16:19:44;;;;;;;8.45;2.45;;;12.60;99.90;;;;;;4993239;28;20451;-87
2022/12/22 16:22:11;;;;;;;6.33;2.20;;;12.60;99.90;;;;;;4985872;28;20025;-88
2022/12/22 16:24:39;;;;;;;12.50;2.55;;;12.60;99.90;;;;;;4995221;28;20125;-89
2022/12/22 16:27:08;;;;;;;13.38;2.72;;;12.60;99.90;;;;;;4986699;28;20510;-86
2022/12/22 16:29:33;;;;;;;13.65;2.92;;;12.60;99.90;;;;;;4962320;28;20089;-86
2022/12/22 16:32:23;;;;;;;9.57;2.80;;;12.60;99.90;;;;;;4985523;28;20079;-87
2022/12/22 16:34:49;;;;;;;10.68;3.10;;;12.70;99.90;;;;;;4980322;28;20525;-86
2022/12/22 16:37:15;;;;;;;11.98;2.83;;;12.60;99.90;;;;;;4991832;28;20203;-86
2022/12/22 16:39:41;;;;;;;14.27;2.80;;;12.70;99.90;;;;;;4989707;28;20014;-86
2022/12/22 16:42:13;;;;;;;17.90;2.65;;;12.70;99.90;;;;;;4971261;28;20055;-86